sensor_id;sensor_type;location;lat;lon;timestamp;P1;durP1;ratioP1;P2;durP2;ratioP2
45893;SDS011;31603;51.148;16.932;2022-10-31T00:00:50;46.50;;;24.85;;
45893;SDS011;31603;51.148;16.932;2022-10-31T00:03:18;36.42;;;21.77;;
45893;SDS011;31603;51.148;16.932;2022-10-31T00:05:45;34.22;;;20.90;;
45893;SDS011;31603;51.148;16.932;2022-10-31T00:08:12;35.28;;;20.27;;
45893;SDS011;31603;51.148;16.932;2022-10-31T00:10:39;33.17;;;20.48;;
45893;SDS011;31603;51.148;16.932;2022-10-31T00:13:06;35.00;;;20.73;;
45893;SDS011;31603;51.148;16.932;2022-10-31T00:15:33;33.03;;;20.58;;
45893;SDS011;31603;51.148;16.932;2022-10-31T00:18:00;36.45;;;20.33;;
45893;SDS011;31603;51.148;16.932;2022-10-31T00:20:28;31.30;;;18.35;;
45893;SDS011;31603;51.148;16.932;2022-10-31T00:22:57;34.10;;;20.30;;
45893;SDS011;31603;51.148;16.932;2022-10-31T00:25:24;36.25;;;21.00;;
45893;SDS011;31603;51.148;16.932;2022-10-31T00:27:51;37.92;;;22.60;;
45893;SDS011;31603;51.148;16.932;2022-10-31T00:30:17;42.35;;;22.23;;
45893;SDS011;31603;51.148;16.932;2022-10-31T00:32:44;33.10;;;19.70;;
45893;SDS011;31603;51.148;16.932;2022-10-31T00:35:10;32.97;;;18.70;;
45893;SDS011;31603;51.148;16.932;2022-10-31T00:37:38;36.53;;;21.05;;
45893;SDS011;31603;51.148;16.932;2022-10-31T00:40:05;34.20;;;19.45;;
45893;SDS011;31603;51.148;16.932;2022-10-31T00:42:32;39.10;;;21.98;;
45893;SDS011;31603;51.148;16.932;2022-10-31T00:44:59;37.08;;;21.63;;
45893;SDS011;31603;51.148;16.932;2022-10-31T00:47:25;34.38;;;21.27;;
45893;SDS011;31603;51.148;16.932;2022-10-31T00:49:51;39.58;;;20.67;;
45893;SDS011;31603;51.148;16.932;2022-10-31T00:52:18;35.97;;;19.63;;
45893;SDS011;31603;51.148;16.932;2022-10-31T00:54:45;36.22;;;19.75;;
45893;SDS011;31603;51.148;16.932;2022-10-31T00:57:12;33.08;;;18.17;;
45893;SDS011;31603;51.148;16.932;2022-10-31T00:59:38;32.17;;;19.70;;
45893;SDS011;31603;51.148;16.932;2022-10-31T01:02:05;38.15;;;20.95;;
45893;SDS011;31603;51.148;16.932;2022-10-31T01:04:31;32.58;;;19.73;;
45893;SDS011;31603;51.148;16.932;2022-10-31T01:06:58;35.13;;;19.42;;
45893;SDS011;31603;51.148;16.932;2022-10-31T01:09:24;35.97;;;20.23;;
45893;SDS011;31603;51.148;16.932;2022-10-31T01:11:52;36.03;;;20.52;;
45893;SDS011;31603;51.148;16.932;2022-10-31T01:14:18;34.95;;;19.23;;
45893;SDS011;31603;51.148;16.932;2022-10-31T01:16:45;36.78;;;21.88;;
45893;SDS011;31603;51.148;16.932;2022-10-31T01:19:11;100.05;;;61.22;;
45893;SDS011;31603;51.148;16.932;2022-10-31T01:21:38;50.67;;;29.73;;
45893;SDS011;31603;51.148;16.932;2022-10-31T01:24:04;40.60;;;23.55;;
45893;SDS011;31603;51.148;16.932;2022-10-31T01:26:32;34.63;;;19.42;;
45893;SDS011;31603;51.148;16.932;2022-10-31T01:29:01;37.92;;;21.65;;
45893;SDS011;31603;51.148;16.932;2022-10-31T01:31:29;28.35;;;18.38;;
45893;SDS011;31603;51.148;16.932;2022-10-31T01:33:57;35.00;;;19.55;;
45893;SDS011;31603;51.148;16.932;2022-10-31T01:36:24;38.35;;;19.27;;
45893;SDS011;31603;51.148;16.932;2022-10-31T01:38:53;38.08;;;22.30;;
45893;SDS011;31603;51.148;16.932;2022-10-31T01:41:22;50.17;;;27.98;;
45893;SDS011;31603;51.148;16.932;2022-10-31T01:43:51;59.78;;;31.58;;
45893;SDS011;31603;51.148;16.932;2022-10-31T01:46:21;44.45;;;25.55;;
45893;SDS011;31603;51.148;16.932;2022-10-31T01:48:50;42.03;;;24.88;;
45893;SDS011;31603;51.148;16.932;2022-10-31T01:51:19;49.03;;;27.33;;
45893;SDS011;31603;51.148;16.932;2022-10-31T01:53:48;40.67;;;21.75;;
45893;SDS011;31603;51.148;16.932;2022-10-31T01:56:19;39.77;;;21.63;;
45893;SDS011;31603;51.148;16.932;2022-10-31T01:58:46;34.90;;;20.60;;
45893;SDS011;31603;51.148;16.932;2022-10-31T02:01:13;38.33;;;21.55;;
45893;SDS011;31603;51.148;16.932;2022-10-31T02:03:43;35.88;;;20.42;;
45893;SDS011;31603;51.148;16.932;2022-10-31T02:06:13;32.42;;;21.13;;
45893;SDS011;31603;51.148;16.932;2022-10-31T02:08:50;34.72;;;17.02;;
45893;SDS011;31603;51.148;16.932;2022-10-31T02:11:18;37.25;;;21.63;;
45893;SDS011;31603;51.148;16.932;2022-10-31T02:13:45;31.67;;;18.60;;
45893;SDS011;31603;51.148;16.932;2022-10-31T02:16:13;36.63;;;19.25;;
45893;SDS011;31603;51.148;16.932;2022-10-31T02:18:39;32.70;;;18.58;;
45893;SDS011;31603;51.148;16.932;2022-10-31T02:21:10;38.00;;;21.30;;
45893;SDS011;31603;51.148;16.932;2022-10-31T02:23:47;36.30;;;20.92;;
45893;SDS011;31603;51.148;16.932;2022-10-31T02:26:35;31.65;;;18.17;;
45893;SDS011;31603;51.148;16.932;2022-10-31T02:29:28;33.70;;;20.80;;
45893;SDS011;31603;51.148;16.932;2022-10-31T02:32:16;34.97;;;19.10;;
45893;SDS011;31603;51.148;16.932;2022-10-31T02:34:48;35.00;;;19.55;;
45893;SDS011;31603;51.148;16.932;2022-10-31T02:37:23;35.22;;;19.23;;
45893;SDS011;31603;51.148;16.932;2022-10-31T02:39:56;28.55;;;17.27;;
45893;SDS011;31603;51.148;16.932;2022-10-31T02:42:29;28.77;;;17.45;;
45893;SDS011;31603;51.148;16.932;2022-10-31T02:45:03;30.33;;;17.98;;
45893;SDS011;31603;51.148;16.932;2022-10-31T02:47:36;35.83;;;19.48;;
45893;SDS011;31603;51.148;16.932;2022-10-31T02:50:04;32.78;;;19.05;;
45893;SDS011;31603;51.148;16.932;2022-10-31T02:52:36;35.50;;;20.15;;
45893;SDS011;31603;51.148;16.932;2022-10-31T02:55:10;34.05;;;19.40;;
45893;SDS011;31603;51.148;16.932;2022-10-31T02:57:38;29.95;;;18.38;;
45893;SDS011;31603;51.148;16.932;2022-10-31T03:00:09;38.25;;;22.20;;
45893;SDS011;31603;51.148;16.932;2022-10-31T03:02:46;33.88;;;19.38;;
45893;SDS011;31603;51.148;16.932;2022-10-31T03:05:23;32.72;;;20.70;;
45893;SDS011;31603;51.148;16.932;2022-10-31T03:08:06;42.35;;;23.20;;
45893;SDS011;31603;51.148;16.932;2022-10-31T03:10:42;27.88;;;17.15;;
45893;SDS011;31603;51.148;16.932;2022-10-31T03:15:47;37.63;;;20.10;;
45893;SDS011;31603;51.148;16.932;2022-10-31T03:18:18;38.97;;;22.00;;
45893;SDS011;31603;51.148;16.932;2022-10-31T03:20:52;31.55;;;18.02;;
45893;SDS011;31603;51.148;16.932;2022-10-31T03:23:23;29.25;;;16.98;;
45893;SDS011;31603;51.148;16.932;2022-10-31T03:25:51;34.42;;;17.60;;
45893;SDS011;31603;51.148;16.932;2022-10-31T03:28:22;35.55;;;19.75;;
45893;SDS011;31603;51.148;16.932;2022-10-31T03:33:23;28.30;;;16.45;;
45893;SDS011;31603;51.148;16.932;2022-10-31T03:35:53;29.13;;;17.88;;
45893;SDS011;31603;51.148;16.932;2022-10-31T03:38:23;32.55;;;16.77;;
45893;SDS011;31603;51.148;16.932;2022-10-31T03:40:51;33.15;;;19.33;;
45893;SDS011;31603;51.148;16.932;2022-10-31T03:43:21;29.67;;;18.30;;
45893;SDS011;31603;51.148;16.932;2022-10-31T03:45:54;28.67;;;17.30;;
45893;SDS011;31603;51.148;16.932;2022-10-31T03:48:22;38.75;;;20.50;;
45893;SDS011;31603;51.148;16.932;2022-10-31T03:50:51;34.40;;;19.25;;
45893;SDS011;31603;51.148;16.932;2022-10-31T03:53:24;33.33;;;18.27;;
45893;SDS011;31603;51.148;16.932;2022-10-31T03:55:57;36.90;;;20.40;;
45893;SDS011;31603;51.148;16.932;2022-10-31T03:58:27;33.03;;;19.17;;
45893;SDS011;31603;51.148;16.932;2022-10-31T04:00:58;39.97;;;19.38;;
45893;SDS011;31603;51.148;16.932;2022-10-31T04:03:33;32.53;;;19.17;;
45893;SDS011;31603;51.148;16.932;2022-10-31T04:06:03;35.83;;;18.20;;
45893;SDS011;31603;51.148;16.932;2022-10-31T04:08:33;35.95;;;17.98;;
45893;SDS011;31603;51.148;16.932;2022-10-31T04:11:05;36.17;;;19.58;;
45893;SDS011;31603;51.148;16.932;2022-10-31T04:13:34;38.20;;;21.40;;
45893;SDS011;31603;51.148;16.932;2022-10-31T04:16:04;37.42;;;23.05;;
45893;SDS011;31603;51.148;16.932;2022-10-31T04:18:33;36.72;;;20.10;;
45893;SDS011;31603;51.148;16.932;2022-10-31T04:21:02;36.53;;;19.85;;
45893;SDS011;31603;51.148;16.932;2022-10-31T04:23:31;29.20;;;17.90;;
45893;SDS011;31603;51.148;16.932;2022-10-31T04:25:59;30.27;;;19.00;;
45893;SDS011;31603;51.148;16.932;2022-10-31T04:28:25;33.05;;;19.27;;
45893;SDS011;31603;51.148;16.932;2022-10-31T04:30:53;34.25;;;17.73;;
45893;SDS011;31603;51.148;16.932;2022-10-31T04:33:20;30.23;;;17.15;;
45893;SDS011;31603;51.148;16.932;2022-10-31T04:35:48;29.42;;;18.38;;
45893;SDS011;31603;51.148;16.932;2022-10-31T04:38:14;29.60;;;17.35;;
45893;SDS011;31603;51.148;16.932;2022-10-31T04:40:40;32.75;;;18.10;;
45893;SDS011;31603;51.148;16.932;2022-10-31T04:43:07;29.17;;;17.35;;
45893;SDS011;31603;51.148;16.932;2022-10-31T04:45:33;29.77;;;17.63;;
45893;SDS011;31603;51.148;16.932;2022-10-31T04:48:00;28.83;;;17.00;;
45893;SDS011;31603;51.148;16.932;2022-10-31T04:50:26;27.58;;;17.08;;
45893;SDS011;31603;51.148;16.932;2022-10-31T04:52:54;33.83;;;16.13;;
45893;SDS011;31603;51.148;16.932;2022-10-31T04:55:20;34.30;;;19.05;;
45893;SDS011;31603;51.148;16.932;2022-10-31T04:57:47;30.40;;;18.02;;
45893;SDS011;31603;51.148;16.932;2022-10-31T05:00:15;32.47;;;17.88;;
45893;SDS011;31603;51.148;16.932;2022-10-31T05:02:43;26.98;;;16.35;;
45893;SDS011;31603;51.148;16.932;2022-10-31T05:05:10;34.85;;;18.00;;
45893;SDS011;31603;51.148;16.932;2022-10-31T05:07:38;28.77;;;17.05;;
45893;SDS011;31603;51.148;16.932;2022-10-31T05:10:07;38.25;;;20.42;;
45893;SDS011;31603;51.148;16.932;2022-10-31T05:12:34;33.88;;;19.05;;
45893;SDS011;31603;51.148;16.932;2022-10-31T05:15:01;30.73;;;16.30;;
45893;SDS011;31603;51.148;16.932;2022-10-31T05:17:27;36.28;;;20.20;;
45893;SDS011;31603;51.148;16.932;2022-10-31T05:19:54;40.85;;;23.05;;
45893;SDS011;31603;51.148;16.932;2022-10-31T05:22:20;37.03;;;20.25;;
45893;SDS011;31603;51.148;16.932;2022-10-31T05:24:46;34.08;;;20.23;;
45893;SDS011;31603;51.148;16.932;2022-10-31T05:27:14;35.10;;;19.88;;
45893;SDS011;31603;51.148;16.932;2022-10-31T05:29:40;28.77;;;17.63;;
45893;SDS011;31603;51.148;16.932;2022-10-31T05:32:09;33.42;;;19.33;;
45893;SDS011;31603;51.148;16.932;2022-10-31T05:34:36;30.25;;;17.02;;
45893;SDS011;31603;51.148;16.932;2022-10-31T05:37:02;38.33;;;19.67;;
45893;SDS011;31603;51.148;16.932;2022-10-31T05:39:28;28.65;;;17.88;;
45893;SDS011;31603;51.148;16.932;2022-10-31T05:41:57;30.58;;;18.23;;
45893;SDS011;31603;51.148;16.932;2022-10-31T05:44:24;27.80;;;16.67;;
45893;SDS011;31603;51.148;16.932;2022-10-31T05:46:51;28.58;;;16.55;;
45893;SDS011;31603;51.148;16.932;2022-10-31T05:49:17;29.00;;;16.85;;
45893;SDS011;31603;51.148;16.932;2022-10-31T05:51:44;48.55;;;27.45;;
45893;SDS011;31603;51.148;16.932;2022-10-31T05:54:10;43.28;;;24.67;;
45893;SDS011;31603;51.148;16.932;2022-10-31T05:56:37;31.60;;;18.42;;
45893;SDS011;31603;51.148;16.932;2022-10-31T05:59:03;30.58;;;17.38;;
45893;SDS011;31603;51.148;16.932;2022-10-31T06:01:31;29.95;;;16.83;;
45893;SDS011;31603;51.148;16.932;2022-10-31T06:03:57;31.58;;;16.88;;
45893;SDS011;31603;51.148;16.932;2022-10-31T06:06:24;26.25;;;16.00;;
45893;SDS011;31603;51.148;16.932;2022-10-31T06:08:50;31.45;;;16.30;;
45893;SDS011;31603;51.148;16.932;2022-10-31T06:11:17;27.92;;;16.48;;
45893;SDS011;31603;51.148;16.932;2022-10-31T06:13:43;28.20;;;16.17;;
45893;SDS011;31603;51.148;16.932;2022-10-31T06:16:16;32.50;;;17.83;;
45893;SDS011;31603;51.148;16.932;2022-10-31T06:18:43;28.77;;;15.10;;
45893;SDS011;31603;51.148;16.932;2022-10-31T06:21:11;26.60;;;14.82;;
45893;SDS011;31603;51.148;16.932;2022-10-31T06:23:37;28.73;;;17.48;;
45893;SDS011;31603;51.148;16.932;2022-10-31T06:26:04;33.83;;;16.58;;
45893;SDS011;31603;51.148;16.932;2022-10-31T06:28:35;30.57;;;17.83;;
45893;SDS011;31603;51.148;16.932;2022-10-31T06:31:01;28.67;;;16.55;;
45893;SDS011;31603;51.148;16.932;2022-10-31T06:33:28;30.58;;;17.80;;
45893;SDS011;31603;51.148;16.932;2022-10-31T06:35:55;36.33;;;20.20;;
45893;SDS011;31603;51.148;16.932;2022-10-31T06:38:22;33.13;;;18.85;;
45893;SDS011;31603;51.148;16.932;2022-10-31T06:40:48;31.17;;;17.08;;
45893;SDS011;31603;51.148;16.932;2022-10-31T06:43:15;31.75;;;18.10;;
45893;SDS011;31603;51.148;16.932;2022-10-31T06:45:41;32.22;;;17.20;;
45893;SDS011;31603;51.148;16.932;2022-10-31T06:48:08;28.20;;;17.00;;
45893;SDS011;31603;51.148;16.932;2022-10-31T06:50:34;27.88;;;15.43;;
45893;SDS011;31603;51.148;16.932;2022-10-31T06:53:02;31.40;;;18.60;;
45893;SDS011;31603;51.148;16.932;2022-10-31T06:55:29;36.15;;;19.25;;
45893;SDS011;31603;51.148;16.932;2022-10-31T06:57:55;40.10;;;20.92;;
45893;SDS011;31603;51.148;16.932;2022-10-31T07:00:23;44.88;;;21.50;;
45893;SDS011;31603;51.148;16.932;2022-10-31T07:02:56;44.22;;;24.67;;
45893;SDS011;31603;51.148;16.932;2022-10-31T07:05:53;42.17;;;21.67;;
45893;SDS011;31603;51.148;16.932;2022-10-31T07:08:22;52.70;;;25.40;;
45893;SDS011;31603;51.148;16.932;2022-10-31T07:10:50;43.38;;;23.13;;
45893;SDS011;31603;51.148;16.932;2022-10-31T07:13:18;49.08;;;24.00;;
45893;SDS011;31603;51.148;16.932;2022-10-31T07:15:48;59.08;;;33.45;;
45893;SDS011;31603;51.148;16.932;2022-10-31T07:18:15;47.60;;;24.85;;
45893;SDS011;31603;51.148;16.932;2022-10-31T07:20:41;39.13;;;20.83;;
45893;SDS011;31603;51.148;16.932;2022-10-31T07:23:08;30.40;;;16.50;;
45893;SDS011;31603;51.148;16.932;2022-10-31T07:25:36;30.90;;;17.35;;
45893;SDS011;31603;51.148;16.932;2022-10-31T07:28:03;37.65;;;18.08;;
45893;SDS011;31603;51.148;16.932;2022-10-31T07:30:30;28.25;;;17.25;;
45893;SDS011;31603;51.148;16.932;2022-10-31T07:32:57;33.40;;;15.25;;
45893;SDS011;31603;51.148;16.932;2022-10-31T07:35:25;30.88;;;16.60;;
45893;SDS011;31603;51.148;16.932;2022-10-31T07:37:53;31.95;;;18.02;;
45893;SDS011;31603;51.148;16.932;2022-10-31T07:40:22;35.55;;;18.85;;
45893;SDS011;31603;51.148;16.932;2022-10-31T07:42:51;38.28;;;23.27;;
45893;SDS011;31603;51.148;16.932;2022-10-31T07:45:19;34.97;;;21.60;;
45893;SDS011;31603;51.148;16.932;2022-10-31T07:47:48;32.78;;;22.17;;
45893;SDS011;31603;51.148;16.932;2022-10-31T07:50:16;37.42;;;21.95;;
45893;SDS011;31603;51.148;16.932;2022-10-31T07:52:44;37.25;;;22.42;;
45893;SDS011;31603;51.148;16.932;2022-10-31T07:55:10;37.80;;;21.85;;
45893;SDS011;31603;51.148;16.932;2022-10-31T07:57:37;40.35;;;23.33;;
45893;SDS011;31603;51.148;16.932;2022-10-31T08:00:08;34.47;;;20.40;;
45893;SDS011;31603;51.148;16.932;2022-10-31T08:02:36;30.38;;;19.70;;
45893;SDS011;31603;51.148;16.932;2022-10-31T08:05:02;36.03;;;20.95;;
45893;SDS011;31603;51.148;16.932;2022-10-31T08:07:29;33.08;;;18.40;;
45893;SDS011;31603;51.148;16.932;2022-10-31T08:09:55;29.48;;;18.80;;
45893;SDS011;31603;51.148;16.932;2022-10-31T08:12:22;25.90;;;17.48;;
45893;SDS011;31603;51.148;16.932;2022-10-31T08:14:48;32.05;;;14.93;;
45893;SDS011;31603;51.148;16.932;2022-10-31T08:17:19;23.23;;;14.05;;
45893;SDS011;31603;51.148;16.932;2022-10-31T08:19:47;23.83;;;13.20;;
45893;SDS011;31603;51.148;16.932;2022-10-31T08:22:13;24.80;;;12.90;;
45893;SDS011;31603;51.148;16.932;2022-10-31T08:24:39;23.55;;;12.85;;
45893;SDS011;31603;51.148;16.932;2022-10-31T08:27:06;22.27;;;12.85;;
45893;SDS011;31603;51.148;16.932;2022-10-31T08:29:32;20.90;;;11.70;;
45893;SDS011;31603;51.148;16.932;2022-10-31T08:31:59;20.33;;;11.38;;
45893;SDS011;31603;51.148;16.932;2022-10-31T08:34:26;25.75;;;10.88;;
45893;SDS011;31603;51.148;16.932;2022-10-31T08:36:53;22.33;;;9.82;;
45893;SDS011;31603;51.148;16.932;2022-10-31T08:39:19;19.90;;;8.80;;
45893;SDS011;31603;51.148;16.932;2022-10-31T08:41:46;14.68;;;7.70;;
45893;SDS011;31603;51.148;16.932;2022-10-31T08:44:12;18.63;;;7.72;;
45893;SDS011;31603;51.148;16.932;2022-10-31T08:46:40;17.20;;;7.72;;
45893;SDS011;31603;51.148;16.932;2022-10-31T08:49:07;14.52;;;7.32;;
45893;SDS011;31603;51.148;16.932;2022-10-31T08:51:34;17.67;;;7.97;;
45893;SDS011;31603;51.148;16.932;2022-10-31T08:54:01;15.70;;;7.22;;
45893;SDS011;31603;51.148;16.932;2022-10-31T08:56:27;14.10;;;6.93;;
45893;SDS011;31603;51.148;16.932;2022-10-31T08:58:53;9.80;;;5.40;;
45893;SDS011;31603;51.148;16.932;2022-10-31T09:01:20;12.40;;;6.03;;
45893;SDS011;31603;51.148;16.932;2022-10-31T09:03:46;11.55;;;5.65;;
45893;SDS011;31603;51.148;16.932;2022-10-31T09:06:13;12.18;;;5.30;;
45893;SDS011;31603;51.148;16.932;2022-10-31T09:08:41;9.13;;;4.53;;
45893;SDS011;31603;51.148;16.932;2022-10-31T09:11:07;9.75;;;4.70;;
45893;SDS011;31603;51.148;16.932;2022-10-31T09:13:33;10.38;;;4.78;;
45893;SDS011;31603;51.148;16.932;2022-10-31T09:16:00;9.32;;;3.78;;
45893;SDS011;31603;51.148;16.932;2022-10-31T09:18:26;10.93;;;4.07;;
45893;SDS011;31603;51.148;16.932;2022-10-31T09:20:53;15.25;;;4.68;;
45893;SDS011;31603;51.148;16.932;2022-10-31T09:23:21;9.45;;;4.32;;
45893;SDS011;31603;51.148;16.932;2022-10-31T09:25:50;11.13;;;4.13;;
45893;SDS011;31603;51.148;16.932;2022-10-31T09:28:19;10.05;;;4.47;;
45893;SDS011;31603;51.148;16.932;2022-10-31T09:30:47;14.43;;;4.60;;
45893;SDS011;31603;51.148;16.932;2022-10-31T09:33:16;10.57;;;4.25;;
45893;SDS011;31603;51.148;16.932;2022-10-31T09:35:47;10.93;;;4.68;;
45893;SDS011;31603;51.148;16.932;2022-10-31T09:38:14;10.43;;;4.60;;
45893;SDS011;31603;51.148;16.932;2022-10-31T09:40:44;10.40;;;4.70;;
45893;SDS011;31603;51.148;16.932;2022-10-31T09:43:15;10.68;;;5.00;;
45893;SDS011;31603;51.148;16.932;2022-10-31T09:45:49;8.80;;;4.30;;
45893;SDS011;31603;51.148;16.932;2022-10-31T09:48:29;8.85;;;4.35;;
45893;SDS011;31603;51.148;16.932;2022-10-31T09:51:03;10.95;;;4.47;;
45893;SDS011;31603;51.148;16.932;2022-10-31T09:53:34;8.07;;;4.15;;
45893;SDS011;31603;51.148;16.932;2022-10-31T09:56:05;11.00;;;4.70;;
45893;SDS011;31603;51.148;16.932;2022-10-31T09:58:36;9.40;;;4.93;;
45893;SDS011;31603;51.148;16.932;2022-10-31T10:01:11;17.05;;;5.35;;
45893;SDS011;31603;51.148;16.932;2022-10-31T10:06:21;10.07;;;4.28;;
45893;SDS011;31603;51.148;16.932;2022-10-31T10:08:50;13.00;;;4.63;;
45893;SDS011;31603;51.148;16.932;2022-10-31T10:11:20;11.25;;;4.70;;
45893;SDS011;31603;51.148;16.932;2022-10-31T10:14:14;12.23;;;5.30;;
45893;SDS011;31603;51.148;16.932;2022-10-31T10:16:53;10.25;;;4.90;;
45893;SDS011;31603;51.148;16.932;2022-10-31T10:19:32;10.25;;;4.82;;
45893;SDS011;31603;51.148;16.932;2022-10-31T10:22:12;13.45;;;5.43;;
45893;SDS011;31603;51.148;16.932;2022-10-31T10:24:48;12.00;;;5.15;;
45893;SDS011;31603;51.148;16.932;2022-10-31T10:27:37;8.90;;;4.22;;
45893;SDS011;31603;51.148;16.932;2022-10-31T10:30:15;9.15;;;4.70;;
45893;SDS011;31603;51.148;16.932;2022-10-31T10:32:44;14.05;;;5.22;;
45893;SDS011;31603;51.148;16.932;2022-10-31T10:35:19;8.45;;;4.55;;
45893;SDS011;31603;51.148;16.932;2022-10-31T10:37:49;29.80;;;9.07;;
45893;SDS011;31603;51.148;16.932;2022-10-31T10:40:22;10.07;;;4.50;;
45893;SDS011;31603;51.148;16.932;2022-10-31T10:42:53;9.85;;;4.45;;
45893;SDS011;31603;51.148;16.932;2022-10-31T10:48:32;11.80;;;4.72;;
45893;SDS011;31603;51.148;16.932;2022-10-31T10:53:58;10.73;;;5.20;;
45893;SDS011;31603;51.148;16.932;2022-10-31T10:56:50;14.77;;;5.65;;
45893;SDS011;31603;51.148;16.932;2022-10-31T10:59:26;12.30;;;5.30;;
45893;SDS011;31603;51.148;16.932;2022-10-31T11:01:55;8.93;;;4.57;;
45893;SDS011;31603;51.148;16.932;2022-10-31T11:04:29;12.77;;;4.80;;
45893;SDS011;31603;51.148;16.932;2022-10-31T11:06:58;11.63;;;5.63;;
45893;SDS011;31603;51.148;16.932;2022-10-31T11:09:27;9.68;;;4.53;;
45893;SDS011;31603;51.148;16.932;2022-10-31T11:11:54;9.65;;;4.15;;
45893;SDS011;31603;51.148;16.932;2022-10-31T11:14:21;7.63;;;4.32;;
45893;SDS011;31603;51.148;16.932;2022-10-31T11:16:50;11.32;;;4.32;;
45893;SDS011;31603;51.148;16.932;2022-10-31T11:19:22;11.37;;;4.97;;
45893;SDS011;31603;51.148;16.932;2022-10-31T11:21:50;14.98;;;5.30;;
45893;SDS011;31603;51.148;16.932;2022-10-31T11:24:19;15.63;;;5.07;;
45893;SDS011;31603;51.148;16.932;2022-10-31T11:26:49;9.18;;;3.80;;
45893;SDS011;31603;51.148;16.932;2022-10-31T11:29:17;9.13;;;5.03;;
45893;SDS011;31603;51.148;16.932;2022-10-31T11:31:47;13.13;;;4.90;;
45893;SDS011;31603;51.148;16.932;2022-10-31T11:34:27;11.98;;;4.47;;
45893;SDS011;31603;51.148;16.932;2022-10-31T11:36:58;7.82;;;3.90;;
45893;SDS011;31603;51.148;16.932;2022-10-31T11:39:29;11.50;;;4.65;;
45893;SDS011;31603;51.148;16.932;2022-10-31T11:41:58;12.15;;;3.90;;
45893;SDS011;31603;51.148;16.932;2022-10-31T11:44:28;9.18;;;4.13;;
45893;SDS011;31603;51.148;16.932;2022-10-31T11:46:58;9.50;;;4.30;;
45893;SDS011;31603;51.148;16.932;2022-10-31T11:49:28;11.88;;;4.55;;
45893;SDS011;31603;51.148;16.932;2022-10-31T11:51:58;11.82;;;4.07;;
45893;SDS011;31603;51.148;16.932;2022-10-31T11:54:27;8.23;;;4.60;;
45893;SDS011;31603;51.148;16.932;2022-10-31T11:56:55;11.55;;;4.03;;
45893;SDS011;31603;51.148;16.932;2022-10-31T11:59:23;11.88;;;4.75;;
45893;SDS011;31603;51.148;16.932;2022-10-31T12:01:53;17.70;;;4.30;;
45893;SDS011;31603;51.148;16.932;2022-10-31T12:04:23;7.55;;;3.92;;
45893;SDS011;31603;51.148;16.932;2022-10-31T12:06:56;9.25;;;3.58;;
45893;SDS011;31603;51.148;16.932;2022-10-31T12:09:23;10.05;;;4.20;;
45893;SDS011;31603;51.148;16.932;2022-10-31T12:11:58;8.95;;;4.32;;
45893;SDS011;31603;51.148;16.932;2022-10-31T12:14:40;10.77;;;5.03;;
45893;SDS011;31603;51.148;16.932;2022-10-31T12:17:17;8.02;;;4.03;;
45893;SDS011;31603;51.148;16.932;2022-10-31T12:19:50;9.98;;;3.72;;
45893;SDS011;31603;51.148;16.932;2022-10-31T12:22:29;8.70;;;3.90;;
45893;SDS011;31603;51.148;16.932;2022-10-31T12:25:11;9.65;;;4.20;;
45893;SDS011;31603;51.148;16.932;2022-10-31T12:27:51;12.00;;;4.53;;
45893;SDS011;31603;51.148;16.932;2022-10-31T12:30:27;10.48;;;3.97;;
45893;SDS011;31603;51.148;16.932;2022-10-31T12:33:02;10.80;;;4.45;;
45893;SDS011;31603;51.148;16.932;2022-10-31T12:35:44;13.65;;;4.15;;
45893;SDS011;31603;51.148;16.932;2022-10-31T12:38:25;8.63;;;4.53;;
45893;SDS011;31603;51.148;16.932;2022-10-31T12:41:09;9.70;;;4.25;;
45893;SDS011;31603;51.148;16.932;2022-10-31T12:43:46;8.27;;;4.38;;
45893;SDS011;31603;51.148;16.932;2022-10-31T12:46:24;10.77;;;4.43;;
45893;SDS011;31603;51.148;16.932;2022-10-31T12:49:10;10.48;;;4.65;;
45893;SDS011;31603;51.148;16.932;2022-10-31T12:51:49;14.10;;;4.95;;
45893;SDS011;31603;51.148;16.932;2022-10-31T12:54:33;14.13;;;8.45;;
45893;SDS011;31603;51.148;16.932;2022-10-31T12:57:16;12.10;;;4.47;;
45893;SDS011;31603;51.148;16.932;2022-10-31T12:59:50;11.50;;;4.65;;
45893;SDS011;31603;51.148;16.932;2022-10-31T13:02:20;13.48;;;4.72;;
45893;SDS011;31603;51.148;16.932;2022-10-31T13:07:21;10.75;;;4.05;;
45893;SDS011;31603;51.148;16.932;2022-10-31T13:12:21;10.48;;;3.90;;
45893;SDS011;31603;51.148;16.932;2022-10-31T13:14:50;8.20;;;3.55;;
45893;SDS011;31603;51.148;16.932;2022-10-31T13:17:22;9.57;;;4.07;;
45893;SDS011;31603;51.148;16.932;2022-10-31T13:19:55;7.13;;;3.72;;
45893;SDS011;31603;51.148;16.932;2022-10-31T13:22:31;12.20;;;3.88;;
45893;SDS011;31603;51.148;16.932;2022-10-31T13:25:03;11.10;;;5.13;;
45893;SDS011;31603;51.148;16.932;2022-10-31T13:27:41;7.95;;;4.30;;
45893;SDS011;31603;51.148;16.932;2022-10-31T13:30:12;12.02;;;4.85;;
45893;SDS011;31603;51.148;16.932;2022-10-31T13:32:46;9.48;;;5.30;;
45893;SDS011;31603;51.148;16.932;2022-10-31T13:35:19;7.70;;;4.40;;
45893;SDS011;31603;51.148;16.932;2022-10-31T13:37:51;11.32;;;4.95;;
45893;SDS011;31603;51.148;16.932;2022-10-31T13:40:32;10.80;;;4.85;;
45893;SDS011;31603;51.148;16.932;2022-10-31T13:43:05;11.90;;;5.45;;
45893;SDS011;31603;51.148;16.932;2022-10-31T13:45:46;22.73;;;6.35;;
45893;SDS011;31603;51.148;16.932;2022-10-31T13:48:18;8.43;;;4.25;;
45893;SDS011;31603;51.148;16.932;2022-10-31T13:50:55;12.73;;;4.85;;
45893;SDS011;31603;51.148;16.932;2022-10-31T13:53:22;9.90;;;4.47;;
45893;SDS011;31603;51.148;16.932;2022-10-31T13:56:04;8.13;;;4.38;;
45893;SDS011;31603;51.148;16.932;2022-10-31T13:58:56;17.38;;;11.05;;
45893;SDS011;31603;51.148;16.932;2022-10-31T14:01:24;10.13;;;5.07;;
45893;SDS011;31603;51.148;16.932;2022-10-31T14:03:59;9.25;;;4.43;;
45893;SDS011;31603;51.148;16.932;2022-10-31T14:06:36;11.75;;;4.38;;
45893;SDS011;31603;51.148;16.932;2022-10-31T14:09:14;14.77;;;4.82;;
45893;SDS011;31603;51.148;16.932;2022-10-31T14:11:46;11.23;;;4.60;;
45893;SDS011;31603;51.148;16.932;2022-10-31T14:14:14;11.63;;;4.47;;
45893;SDS011;31603;51.148;16.932;2022-10-31T14:16:42;12.38;;;4.68;;
45893;SDS011;31603;51.148;16.932;2022-10-31T14:19:13;7.63;;;4.40;;
45893;SDS011;31603;51.148;16.932;2022-10-31T14:21:43;13.27;;;5.18;;
45893;SDS011;31603;51.148;16.932;2022-10-31T14:24:14;11.02;;;4.72;;
45893;SDS011;31603;51.148;16.932;2022-10-31T14:26:52;10.63;;;5.05;;
45893;SDS011;31603;51.148;16.932;2022-10-31T14:29:25;11.60;;;4.65;;
45893;SDS011;31603;51.148;16.932;2022-10-31T14:32:04;11.35;;;4.70;;
45893;SDS011;31603;51.148;16.932;2022-10-31T14:34:37;13.02;;;5.43;;
45893;SDS011;31603;51.148;16.932;2022-10-31T14:37:11;10.23;;;5.13;;
45893;SDS011;31603;51.148;16.932;2022-10-31T14:39:49;10.00;;;4.70;;
45893;SDS011;31603;51.148;16.932;2022-10-31T14:42:32;10.15;;;4.75;;
45893;SDS011;31603;51.148;16.932;2022-10-31T14:45:15;11.88;;;4.97;;
45893;SDS011;31603;51.148;16.932;2022-10-31T14:47:52;12.82;;;4.70;;
45893;SDS011;31603;51.148;16.932;2022-10-31T14:50:34;11.43;;;5.75;;
45893;SDS011;31603;51.148;16.932;2022-10-31T14:53:11;14.90;;;5.63;;